createdAt,value
2022-10-19T06:36:32.887Z,11.40
2022-10-19T06:39:02.109Z,11.40
2022-10-19T06:41:30.978Z,11.50
2022-10-19T06:43:59.272Z,11.50
2022-10-19T06:46:28.538Z,11.60
2022-10-19T06:48:58.527Z,11.70
2022-10-19T06:51:30.209Z,11.70
2022-10-19T06:53:59.942Z,11.70
2022-10-19T06:56:31.070Z,11.80
2022-10-19T06:58:59.639Z,11.90
2022-10-19T07:01:39.686Z,11.90
2022-10-19T07:04:07.889Z,11.90
2022-10-19T07:06:36.166Z,11.80
2022-10-19T07:09:06.076Z,11.90
2022-10-19T07:11:34.339Z,11.90
2022-10-19T07:14:02.701Z,12.00
2022-10-19T07:16:31.170Z,12.00
2022-10-19T07:18:59.574Z,12.00
2022-10-19T07:21:27.597Z,12.10
2022-10-19T07:23:55.827Z,12.20
2022-10-19T07:26:29.585Z,12.20
2022-10-19T07:28:59.126Z,12.30
2022-10-19T07:31:28.940Z,12.30
2022-10-19T07:33:58.407Z,12.30
2022-10-19T07:36:27.444Z,12.30
2022-10-19T07:38:56.021Z,12.40
2022-10-19T07:41:27.092Z,12.40
2022-10-19T07:43:55.733Z,12.40
2022-10-19T07:46:25.660Z,12.30
2022-10-19T07:48:54.592Z,12.40
2022-10-19T07:51:24.693Z,12.50
2022-10-19T07:53:53.546Z,12.50
2022-10-19T07:56:26.726Z,12.60
2022-10-19T07:58:58.090Z,12.70
2022-10-19T08:01:29.916Z,12.70
2022-10-19T08:06:47.952Z,12.90
2022-10-19T08:09:40.201Z,13.00
2022-10-19T08:12:28.534Z,13.10
2022-10-19T08:14:58.415Z,13.20
2022-10-19T08:17:26.975Z,13.30
2022-10-19T08:19:55.306Z,13.40
2022-10-19T08:22:23.670Z,13.60
2022-10-19T08:24:51.999Z,13.80
2022-10-19T08:27:20.275Z,14.00
2022-10-19T08:29:48.538Z,14.00
2022-10-19T08:32:18.326Z,14.10
2022-10-19T08:34:46.578Z,14.30
2022-10-19T08:37:26.115Z,14.50
2022-10-19T08:40:01.233Z,14.60
2022-10-19T08:42:41.336Z,14.70
2022-10-19T08:45:28.645Z,14.80
2022-10-19T08:48:05.970Z,15.00
2022-10-19T08:50:41.659Z,15.10
2022-10-19T08:53:15.437Z,15.30
2022-10-19T08:55:52.679Z,15.50
2022-10-19T08:58:33.605Z,15.70
2022-10-19T09:01:08.423Z,15.90
2022-10-19T09:03:56.191Z,16.00
2022-10-19T09:06:30.429Z,16.00
2022-10-19T09:09:00.090Z,16.30
2022-10-19T09:11:31.066Z,16.50
2022-10-19T09:14:06.593Z,16.60
2022-10-19T09:16:36.378Z,16.80
2022-10-19T09:19:14.891Z,17.00
2022-10-19T09:21:48.317Z,17.20
2022-10-19T09:24:31.381Z,17.30
2022-10-19T09:27:01.587Z,17.40
2022-10-19T09:29:36.564Z,17.50
2022-10-19T09:32:08.529Z,17.40
2022-10-19T09:34:43.291Z,17.20
2022-10-19T09:37:21.202Z,17.20
2022-10-19T09:39:54.893Z,17.10
2022-10-19T09:42:29.355Z,17.20
2022-10-19T09:45:00.508Z,17.40
2022-10-19T09:47:35.112Z,17.60
2022-10-19T09:50:20.346Z,17.80
2022-10-19T09:52:49.908Z,17.70
2022-10-19T09:55:30.899Z,17.80
2022-10-19T09:58:05.090Z,17.90
2022-10-19T10:00:39.230Z,17.90
2022-10-19T10:03:09.042Z,18.00
2022-10-19T10:05:40.611Z,18.00
2022-10-19T10:08:15.856Z,18.00
2022-10-19T10:10:47.383Z,18.00
2022-10-19T10:13:19.340Z,18.10
2022-10-19T10:15:51.180Z,18.20
2022-10-19T10:18:20.640Z,18.40
2022-10-19T10:21:04.749Z,18.40
2022-10-19T10:23:36.632Z,18.40
2022-10-19T10:26:06.361Z,18.50
2022-10-19T10:28:34.739Z,18.70
2022-10-19T10:31:06.103Z,18.80
2022-10-19T10:33:45.398Z,18.90
2022-10-19T10:36:15.865Z,19.10
2022-10-19T10:38:47.683Z,19.20
2022-10-19T10:41:18.398Z,19.40
2022-10-19T10:43:57.499Z,19.70
2022-10-19T10:46:30.453Z,20.00
2022-10-19T10:49:00.180Z,20.30
2022-10-19T10:51:36.409Z,20.30
2022-10-19T10:54:15.955Z,20.40
2022-10-19T10:56:46.379Z,20.50
2022-10-19T10:59:19.733Z,20.80
2022-10-19T11:02:00.382Z,20.80
2022-10-19T11:04:33.649Z,20.80
2022-10-19T11:07:12.083Z,21.10
2022-10-19T11:09:44.568Z,21.50
2022-10-19T11:12:17.545Z,21.70
2022-10-19T11:14:49.658Z,21.90
2022-10-19T11:17:22.298Z,22.20
2022-10-19T11:19:51.521Z,22.30
2022-10-19T11:22:29.760Z,22.60
2022-10-19T11:25:11.728Z,22.80
2022-10-19T11:27:50.685Z,23.30
2022-10-19T11:30:21.504Z,23.60
2022-10-19T11:32:59.533Z,23.70
2022-10-19T11:35:53.079Z,24.10
2022-10-19T11:38:37.365Z,24.10
2022-10-19T11:41:28.571Z,24.30
2022-10-19T11:44:10.692Z,24.60
2022-10-19T11:46:44.102Z,24.40
2022-10-19T11:49:22.880Z,24.30
2022-10-19T11:51:57.785Z,24.30
2022-10-19T11:57:26.804Z,24.50
2022-10-19T12:00:14.813Z,24.90
2022-10-19T12:03:14.451Z,25.20
2022-10-19T12:05:55.587Z,25.20
2022-10-19T12:08:38.704Z,25.50
2022-10-19T12:11:23.635Z,26.00
2022-10-19T12:13:57.308Z,25.80
2022-10-19T12:16:35.604Z,25.80
2022-10-19T12:19:07.949Z,25.90
2022-10-19T12:21:40.440Z,26.10
2022-10-19T12:24:15.329Z,26.10
2022-10-19T12:26:45.155Z,26.20
2022-10-19T12:29:18.564Z,26.30
2022-10-19T12:31:48.106Z,26.60
2022-10-19T12:34:27.184Z,26.40
2022-10-19T12:36:58.501Z,25.90
2022-10-19T12:39:38.024Z,26.10
2022-10-19T12:42:16.079Z,26.20
2022-10-19T12:45:09.809Z,26.10
2022-10-19T12:47:38.184Z,26.30
2022-10-19T12:50:07.446Z,26.20
2022-10-19T12:52:42.828Z,25.80
2022-10-19T12:55:25.953Z,25.60
2022-10-19T12:58:06.994Z,25.50
2022-10-19T13:00:38.880Z,25.20
2022-10-19T13:03:14.970Z,24.60
2022-10-19T13:05:43.333Z,24.10
2022-10-19T13:08:28.964Z,23.60
2022-10-19T13:11:14.723Z,23.60
2022-10-19T13:13:56.344Z,23.80
2022-10-19T13:17:02.186Z,23.90
2022-10-19T13:19:31.356Z,24.20
2022-10-19T13:22:27.851Z,23.60
2022-10-19T13:25:36.904Z,23.30
2022-10-19T13:28:37.642Z,23.30
2022-10-19T13:31:24.629Z,23.40
2022-10-19T13:33:55.478Z,23.20
2022-10-19T13:36:25.629Z,22.80
2022-10-19T13:39:14.048Z,22.50
2022-10-19T13:41:56.516Z,22.40
2022-10-19T13:44:28.153Z,22.30
2022-10-19T13:47:18.149Z,22.30
2022-10-19T13:50:18.797Z,22.70
2022-10-19T13:53:23.286Z,23.00
2022-10-19T13:56:11.042Z,23.30
2022-10-19T13:59:21.765Z,23.00
2022-10-19T14:02:02.513Z,23.10
2022-10-19T14:04:46.293Z,22.90
2022-10-19T14:07:18.333Z,22.50
2022-10-19T14:10:09.272Z,22.00
2022-10-19T14:12:41.624Z,21.70
2022-10-19T14:15:23.881Z,21.40
2022-10-19T14:17:55.313Z,21.20
2022-10-19T14:20:31.266Z,20.90
2022-10-19T14:22:59.729Z,20.60
2022-10-19T14:25:30.537Z,20.50
2022-10-19T14:28:02.521Z,20.50
2022-10-19T14:30:33.207Z,20.40
2022-10-19T14:33:03.411Z,20.40
2022-10-19T14:35:35.481Z,20.40
2022-10-19T14:38:06.553Z,20.80
2022-10-19T14:40:39.965Z,21.10
2022-10-19T14:43:22.047Z,21.40
2022-10-19T14:46:20.582Z,21.50
2022-10-19T14:48:50.522Z,21.50
2022-10-19T14:51:29.873Z,21.30
2022-10-19T14:54:01.133Z,21.20
2022-10-19T14:56:35.541Z,20.80
2022-10-19T14:59:09.307Z,20.60
2022-10-19T15:01:37.743Z,20.60
2022-10-19T15:04:05.986Z,20.50
2022-10-19T15:06:42.371Z,20.70
2022-10-19T15:09:36.760Z,20.90
2022-10-19T15:12:10.103Z,21.10
2022-10-19T15:14:39.607Z,20.80
2022-10-19T15:17:24.279Z,20.80
2022-10-19T15:19:54.018Z,20.40
2022-10-19T15:22:25.054Z,20.40
2022-10-19T15:25:02.970Z,20.20
2022-10-19T15:27:35.241Z,20.00
2022-10-19T15:30:07.558Z,19.90
2022-10-19T15:32:38.180Z,19.60
2022-10-19T15:35:17.850Z,19.60
2022-10-19T15:37:49.845Z,19.40
2022-10-19T15:40:34.485Z,19.40
2022-10-19T15:43:37.608Z,19.30
2022-10-19T15:46:07.657Z,19.20
2022-10-19T15:48:51.059Z,19.20
2022-10-19T15:51:39.488Z,19.20
2022-10-19T15:54:08.793Z,19.20
2022-10-19T15:56:39.416Z,19.10
2022-10-19T15:59:14.965Z,19.10
2022-10-19T16:01:44.274Z,19.00
2022-10-19T16:04:12.889Z,18.90
2022-10-19T16:06:42.780Z,18.90
2022-10-19T16:09:17.879Z,18.80
